Terminal Aerodrome Forecast
Issued by NWS

Home | Current Version | Previous Version | Text Only | Print | Product List | Glossary On
Versions: 1 2 3 4 5 6 7 8 9 10 11 12 13 14 15 16 17 18 19 20
000
FTUS44 KEWX 271800 CCA
TAFSSF
TAF COR
KSSF 271833Z 2718/2818 01015G25KT 6SM -RA BR SCT012 OVC022
     FM272100 36014G24KT P6SM OVC022
     FM280200 01015KT P6SM OVC035
      TEMPO 2810/2814 -RA
     FM281700 36011KT P6SM BKN100=

USA.gov is the U.S. government's official web portal to all federal, state and local government web resources and services.